sensor_id;sensor_type;location;lat;lon;timestamp;temperature;humidity
57030;DHT22;42920;45.306;20.448;2023-04-03T00:00:12;307.40;2304.00
57030;DHT22;42920;45.306;20.448;2023-04-03T00:02:38;307.40;2304.00
57030;DHT22;42920;45.306;20.448;2023-04-03T00:05:06;307.30;2304.00
57030;DHT22;42920;45.306;20.448;2023-04-03T00:07:32;307.30;2304.00
57030;DHT22;42920;45.306;20.448;2023-04-03T00:09:57;307.30;2304.00
57030;DHT22;42920;45.306;20.448;2023-04-03T00:12:23;307.40;2304.00
57030;DHT22;42920;45.306;20.448;2023-04-03T00:14:49;307.50;2304.00
57030;DHT22;42920;45.306;20.448;2023-04-03T00:17:15;307.50;2304.00
57030;DHT22;42920;45.306;20.448;2023-04-03T00:19:40;307.60;2304.00
57030;DHT22;42920;45.306;20.448;2023-04-03T00:22:06;307.50;2304.00
57030;DHT22;42920;45.306;20.448;2023-04-03T00:24:32;307.40;2304.00
57030;DHT22;42920;45.306;20.448;2023-04-03T00:26:57;307.40;2304.00
57030;DHT22;42920;45.306;20.448;2023-04-03T00:29:23;307.40;2304.00
57030;DHT22;42920;45.306;20.448;2023-04-03T00:31:48;307.50;2304.00
57030;DHT22;42920;45.306;20.448;2023-04-03T00:34:14;307.60;2304.00
57030;DHT22;42920;45.306;20.448;2023-04-03T00:36:40;307.40;2304.00
57030;DHT22;42920;45.306;20.448;2023-04-03T00:39:06;307.40;2304.00
57030;DHT22;42920;45.306;20.448;2023-04-03T00:41:31;307.30;2304.00
57030;DHT22;42920;45.306;20.448;2023-04-03T00:43:57;307.40;2304.00
57030;DHT22;42920;45.306;20.448;2023-04-03T00:46:23;307.40;2304.00
57030;DHT22;42920;45.306;20.448;2023-04-03T00:48:49;307.30;2304.00
57030;DHT22;42920;45.306;20.448;2023-04-03T00:51:24;307.20;2304.00
57030;DHT22;42920;45.306;20.448;2023-04-03T00:53:59;307.20;2304.00
57030;DHT22;42920;45.306;20.448;2023-04-03T00:56:27;307.20;2304.00
57030;DHT22;42920;45.306;20.448;2023-04-03T00:59:02;307.20;2304.00
57030;DHT22;42920;45.306;20.448;2023-04-03T01:01:29;282.50;2278.40
57030;DHT22;42920;45.306;20.448;2023-04-03T01:03:56;282.50;2278.40
57030;DHT22;42920;45.306;20.448;2023-04-03T01:06:28;282.50;2278.40
57030;DHT22;42920;45.306;20.448;2023-04-03T01:08:56;282.50;2278.40
57030;DHT22;42920;45.306;20.448;2023-04-03T01:11:22;307.20;2304.00
57030;DHT22;42920;45.306;20.448;2023-04-03T01:13:48;282.50;2278.40
57030;DHT22;42920;45.306;20.448;2023-04-03T01:16:15;282.40;2278.40
57030;DHT22;42920;45.306;20.448;2023-04-03T01:18:41;282.40;2278.40
57030;DHT22;42920;45.306;20.448;2023-04-03T01:21:27;282.40;2278.40
57030;DHT22;42920;45.306;20.448;2023-04-03T01:26:44;282.40;2278.40
57030;DHT22;42920;45.306;20.448;2023-04-03T01:29:10;282.40;2278.40
57030;DHT22;42920;45.306;20.448;2023-04-03T01:31:54;282.40;2278.40
57030;DHT22;42920;45.306;20.448;2023-04-03T01:34:21;282.40;2278.40
57030;DHT22;42920;45.306;20.448;2023-04-03T01:36:47;282.50;2278.40
57030;DHT22;42920;45.306;20.448;2023-04-03T01:39:13;282.50;2278.40
57030;DHT22;42920;45.306;20.448;2023-04-03T01:41:38;282.40;2278.40
57030;DHT22;42920;45.306;20.448;2023-04-03T01:44:04;282.40;2278.40
57030;DHT22;42920;45.306;20.448;2023-04-03T01:46:30;282.40;2278.40
57030;DHT22;42920;45.306;20.448;2023-04-03T01:48:56;282.40;2278.40
57030;DHT22;42920;45.306;20.448;2023-04-03T01:51:21;282.40;2278.40
57030;DHT22;42920;45.306;20.448;2023-04-03T01:53:47;282.40;2278.40
57030;DHT22;42920;45.306;20.448;2023-04-03T01:56:13;282.40;2278.40
57030;DHT22;42920;45.306;20.448;2023-04-03T01:58:38;282.40;2278.40
57030;DHT22;42920;45.306;20.448;2023-04-03T02:01:04;282.40;2278.40
57030;DHT22;42920;45.306;20.448;2023-04-03T02:03:31;282.50;2278.40
57030;DHT22;42920;45.306;20.448;2023-04-03T02:05:57;282.40;2278.40
57030;DHT22;42920;45.306;20.448;2023-04-03T02:08:22;282.40;2278.40
57030;DHT22;42920;45.306;20.448;2023-04-03T02:10:49;282.40;2278.40
57030;DHT22;42920;45.306;20.448;2023-04-03T02:13:15;282.40;2278.40
57030;DHT22;42920;45.306;20.448;2023-04-03T02:15:41;282.40;2278.40
57030;DHT22;42920;45.306;20.448;2023-04-03T02:18:07;282.40;2278.40
57030;DHT22;42920;45.306;20.448;2023-04-03T02:20:33;282.30;2278.40
57030;DHT22;42920;45.306;20.448;2023-04-03T02:22:59;282.20;2278.40
57030;DHT22;42920;45.306;20.448;2023-04-03T02:25:25;282.10;2278.40
57030;DHT22;42920;45.306;20.448;2023-04-03T02:27:51;282.00;2278.40
57030;DHT22;42920;45.306;20.448;2023-04-03T02:30:17;281.90;2278.40
57030;DHT22;42920;45.306;20.448;2023-04-03T02:32:43;282.00;2278.40
57030;DHT22;42920;45.306;20.448;2023-04-03T02:35:10;282.00;2278.40
57030;DHT22;42920;45.306;20.448;2023-04-03T02:37:36;281.90;2278.40
57030;DHT22;42920;45.306;20.448;2023-04-03T02:40:02;282.00;2278.40
57030;DHT22;42920;45.306;20.448;2023-04-03T02:42:29;281.90;2278.40
57030;DHT22;42920;45.306;20.448;2023-04-03T02:44:55;281.80;2278.40
57030;DHT22;42920;45.306;20.448;2023-04-03T02:47:21;281.80;2278.40
57030;DHT22;42920;45.306;20.448;2023-04-03T02:49:46;281.80;2278.40
57030;DHT22;42920;45.306;20.448;2023-04-03T02:52:13;281.80;2278.40
57030;DHT22;42920;45.306;20.448;2023-04-03T02:54:39;281.80;2278.40
57030;DHT22;42920;45.306;20.448;2023-04-03T02:57:04;281.70;2278.40
57030;DHT22;42920;45.306;20.448;2023-04-03T02:59:30;281.60;2278.40
57030;DHT22;42920;45.306;20.448;2023-04-03T03:01:56;281.60;2278.40
57030;DHT22;42920;45.306;20.448;2023-04-03T03:04:22;256.90;2252.80
57030;DHT22;42920;45.306;20.448;2023-04-03T03:06:47;256.90;2252.80
57030;DHT22;42920;45.306;20.448;2023-04-03T03:09:13;256.90;2252.80
57030;DHT22;42920;45.306;20.448;2023-04-03T03:11:39;256.80;2252.80
57030;DHT22;42920;45.306;20.448;2023-04-03T03:14:05;256.70;2252.80
57030;DHT22;42920;45.306;20.448;2023-04-03T03:16:30;256.70;2252.80
57030;DHT22;42920;45.306;20.448;2023-04-03T03:18:56;256.60;2252.80
57030;DHT22;42920;45.306;20.448;2023-04-03T03:21:22;256.70;2252.80
57030;DHT22;42920;45.306;20.448;2023-04-03T03:23:47;256.60;2252.80
57030;DHT22;42920;45.306;20.448;2023-04-03T03:26:13;256.70;2252.80
57030;DHT22;42920;45.306;20.448;2023-04-03T03:28:39;256.70;2252.80
57030;DHT22;42920;45.306;20.448;2023-04-03T03:31:07;256.60;2252.80
57030;DHT22;42920;45.306;20.448;2023-04-03T03:33:32;256.50;2252.80
57030;DHT22;42920;45.306;20.448;2023-04-03T03:35:58;256.50;2252.80
57030;DHT22;42920;45.306;20.448;2023-04-03T03:38:24;256.40;2252.80
57030;DHT22;42920;45.306;20.448;2023-04-03T03:40:50;256.50;2252.80
57030;DHT22;42920;45.306;20.448;2023-04-03T03:43:17;256.50;2252.80
57030;DHT22;42920;45.306;20.448;2023-04-03T03:45:43;256.40;2252.80
57030;DHT22;42920;45.306;20.448;2023-04-03T03:48:08;256.50;2252.80
57030;DHT22;42920;45.306;20.448;2023-04-03T03:50:34;256.50;2252.80
57030;DHT22;42920;45.306;20.448;2023-04-03T03:53:00;256.50;2252.80
57030;DHT22;42920;45.306;20.448;2023-04-03T03:55:26;256.40;2252.80
57030;DHT22;42920;45.306;20.448;2023-04-03T03:57:51;256.40;2252.80
57030;DHT22;42920;45.306;20.448;2023-04-03T04:00:17;256.30;2252.80
57030;DHT22;42920;45.306;20.448;2023-04-03T04:02:43;256.40;2252.80
57030;DHT22;42920;45.306;20.448;2023-04-03T04:05:09;256.30;2252.80
57030;DHT22;42920;45.306;20.448;2023-04-03T04:07:35;256.40;2252.80
57030;DHT22;42920;45.306;20.448;2023-04-03T04:10:00;256.20;2252.80
57030;DHT22;42920;45.306;20.448;2023-04-03T04:12:26;256.20;2252.80
57030;DHT22;42920;45.306;20.448;2023-04-03T04:14:52;256.20;2252.80
57030;DHT22;42920;45.306;20.448;2023-04-03T04:17:17;256.20;2252.80
57030;DHT22;42920;45.306;20.448;2023-04-03T04:19:43;256.20;2252.80
57030;DHT22;42920;45.306;20.448;2023-04-03T04:22:09;256.20;2252.80
57030;DHT22;42920;45.306;20.448;2023-04-03T04:24:34;256.20;2252.80
57030;DHT22;42920;45.306;20.448;2023-04-03T04:27:00;256.20;2252.80
57030;DHT22;42920;45.306;20.448;2023-04-03T04:29:25;256.20;2252.80
57030;DHT22;42920;45.306;20.448;2023-04-03T04:31:51;256.10;2252.80
57030;DHT22;42920;45.306;20.448;2023-04-03T04:34:17;256.10;2252.80
57030;DHT22;42920;45.306;20.448;2023-04-03T04:36:42;256.00;2252.80
57030;DHT22;42920;45.306;20.448;2023-04-03T04:39:08;231.30;2252.80
57030;DHT22;42920;45.306;20.448;2023-04-03T04:41:34;231.20;2252.80
57030;DHT22;42920;45.306;20.448;2023-04-03T04:44:00;231.20;2252.80
57030;DHT22;42920;45.306;20.448;2023-04-03T04:46:26;231.20;2252.80
57030;DHT22;42920;45.306;20.448;2023-04-03T04:48:51;231.10;2252.80
57030;DHT22;42920;45.306;20.448;2023-04-03T04:51:17;231.20;2252.80
57030;DHT22;42920;45.306;20.448;2023-04-03T04:53:43;231.20;2252.80
57030;DHT22;42920;45.306;20.448;2023-04-03T04:56:09;231.20;2252.80
57030;DHT22;42920;45.306;20.448;2023-04-03T04:58:34;231.20;2252.80
57030;DHT22;42920;45.306;20.448;2023-04-03T05:01:05;231.20;2252.80
57030;DHT22;42920;45.306;20.448;2023-04-03T05:03:31;231.20;2252.80
57030;DHT22;42920;45.306;20.448;2023-04-03T05:05:57;231.10;2252.80
57030;DHT22;42920;45.306;20.448;2023-04-03T05:08:23;231.10;2252.80
57030;DHT22;42920;45.306;20.448;2023-04-03T05:10:49;231.10;2252.80
57030;DHT22;42920;45.306;20.448;2023-04-03T05:13:15;231.10;2252.80
57030;DHT22;42920;45.306;20.448;2023-04-03T05:15:40;231.10;2252.80
57030;DHT22;42920;45.306;20.448;2023-04-03T05:18:06;231.10;2252.80
57030;DHT22;42920;45.306;20.448;2023-04-03T05:20:32;231.00;2252.80
57030;DHT22;42920;45.306;20.448;2023-04-03T05:22:58;231.00;2252.80
57030;DHT22;42920;45.306;20.448;2023-04-03T05:25:24;230.90;2252.80
57030;DHT22;42920;45.306;20.448;2023-04-03T05:27:50;230.90;2252.80
57030;DHT22;42920;45.306;20.448;2023-04-03T05:30:16;231.00;2252.80
57030;DHT22;42920;45.306;20.448;2023-04-03T05:32:42;230.90;2252.80
57030;DHT22;42920;45.306;20.448;2023-04-03T05:35:08;231.00;2252.80
57030;DHT22;42920;45.306;20.448;2023-04-03T05:37:34;231.00;2252.80
57030;DHT22;42920;45.306;20.448;2023-04-03T05:40:00;230.90;2252.80
57030;DHT22;42920;45.306;20.448;2023-04-03T05:42:26;231.00;2252.80
57030;DHT22;42920;45.306;20.448;2023-04-03T05:44:52;230.90;2252.80
57030;DHT22;42920;45.306;20.448;2023-04-03T05:47:18;230.90;2252.80
57030;DHT22;42920;45.306;20.448;2023-04-03T05:49:44;230.90;2252.80
57030;DHT22;42920;45.306;20.448;2023-04-03T05:52:35;230.90;2252.80
57030;DHT22;42920;45.306;20.448;2023-04-03T05:55:02;230.90;2252.80
57030;DHT22;42920;45.306;20.448;2023-04-03T05:57:28;230.90;2252.80
57030;DHT22;42920;45.306;20.448;2023-04-03T05:59:53;230.90;2252.80
57030;DHT22;42920;45.306;20.448;2023-04-03T06:02:22;230.90;2252.80
57030;DHT22;42920;45.306;20.448;2023-04-03T06:04:49;230.90;2252.80
57030;DHT22;42920;45.306;20.448;2023-04-03T06:07:21;230.80;2252.80
57030;DHT22;42920;45.306;20.448;2023-04-03T06:09:48;230.90;2252.80
57030;DHT22;42920;45.306;20.448;2023-04-03T06:12:15;230.90;2252.80
57030;DHT22;42920;45.306;20.448;2023-04-03T06:14:40;230.90;2252.80
57030;DHT22;42920;45.306;20.448;2023-04-03T06:17:06;230.90;2252.80
57030;DHT22;42920;45.306;20.448;2023-04-03T06:19:33;230.90;2252.80
57030;DHT22;42920;45.306;20.448;2023-04-03T06:21:59;230.90;2252.80
57030;DHT22;42920;45.306;20.448;2023-04-03T06:24:26;231.00;2252.80
57030;DHT22;42920;45.306;20.448;2023-04-03T06:26:52;231.00;2252.80
57030;DHT22;42920;45.306;20.448;2023-04-03T06:29:19;231.00;2252.80
57030;DHT22;42920;45.306;20.448;2023-04-03T06:31:45;231.00;2252.80
57030;DHT22;42920;45.306;20.448;2023-04-03T06:34:12;231.00;2252.80
57030;DHT22;42920;45.306;20.448;2023-04-03T06:36:38;231.00;2252.80
57030;DHT22;42920;45.306;20.448;2023-04-03T06:39:05;231.00;2252.80
57030;DHT22;42920;45.306;20.448;2023-04-03T06:41:31;231.00;2252.80
57030;DHT22;42920;45.306;20.448;2023-04-03T06:43:57;231.10;2252.80
57030;DHT22;42920;45.306;20.448;2023-04-03T06:46:24;231.10;2252.80
57030;DHT22;42920;45.306;20.448;2023-04-03T06:48:50;231.10;2252.80
57030;DHT22;42920;45.306;20.448;2023-04-03T06:51:20;231.10;2252.80
57030;DHT22;42920;45.306;20.448;2023-04-03T06:53:48;231.20;2252.80
57030;DHT22;42920;45.306;20.448;2023-04-03T06:56:15;231.10;2252.80
57030;DHT22;42920;45.306;20.448;2023-04-03T06:58:41;231.10;2252.80
57030;DHT22;42920;45.306;20.448;2023-04-03T07:01:08;231.20;2252.80
57030;DHT22;42920;45.306;20.448;2023-04-03T07:03:35;231.20;2252.80
57030;DHT22;42920;45.306;20.448;2023-04-03T07:06:02;231.20;2252.80
57030;DHT22;42920;45.306;20.448;2023-04-03T07:08:28;231.20;2252.80
57030;DHT22;42920;45.306;20.448;2023-04-03T07:10:54;231.20;2252.80
57030;DHT22;42920;45.306;20.448;2023-04-03T07:13:20;231.20;2252.80
57030;DHT22;42920;45.306;20.448;2023-04-03T07:15:45;231.20;2252.80
57030;DHT22;42920;45.306;20.448;2023-04-03T07:18:11;231.20;2252.80
57030;DHT22;42920;45.306;20.448;2023-04-03T07:20:38;231.20;2252.80
57030;DHT22;42920;45.306;20.448;2023-04-03T07:23:04;231.30;2252.80
57030;DHT22;42920;45.306;20.448;2023-04-03T07:25:30;256.00;2252.80
57030;DHT22;42920;45.306;20.448;2023-04-03T07:27:57;256.00;2252.80
57030;DHT22;42920;45.306;20.448;2023-04-03T07:30:23;256.00;2252.80
57030;DHT22;42920;45.306;20.448;2023-04-03T07:32:48;256.10;2252.80
57030;DHT22;42920;45.306;20.448;2023-04-03T07:35:14;256.10;2252.80
57030;DHT22;42920;45.306;20.448;2023-04-03T07:37:40;256.10;2252.80
57030;DHT22;42920;45.306;20.448;2023-04-03T07:40:07;256.10;2252.80
57030;DHT22;42920;45.306;20.448;2023-04-03T07:42:34;256.10;2252.80
57030;DHT22;42920;45.306;20.448;2023-04-03T07:45:01;256.20;2252.80
57030;DHT22;42920;45.306;20.448;2023-04-03T07:47:27;256.30;2252.80
57030;DHT22;42920;45.306;20.448;2023-04-03T07:49:53;256.40;2252.80
57030;DHT22;42920;45.306;20.448;2023-04-03T07:52:18;256.40;2252.80
57030;DHT22;42920;45.306;20.448;2023-04-03T07:54:44;256.60;2252.80
57030;DHT22;42920;45.306;20.448;2023-04-03T07:57:09;256.50;2252.80
57030;DHT22;42920;45.306;20.448;2023-04-03T07:59:36;256.50;2252.80
57030;DHT22;42920;45.306;20.448;2023-04-03T08:02:01;256.60;2252.80
57030;DHT22;42920;45.306;20.448;2023-04-03T08:04:30;256.60;2252.80
57030;DHT22;42920;45.306;20.448;2023-04-03T08:06:55;256.70;2252.80
57030;DHT22;42920;45.306;20.448;2023-04-03T08:09:21;256.70;2252.80
57030;DHT22;42920;45.306;20.448;2023-04-03T08:11:47;256.60;2252.80
57030;DHT22;42920;45.306;20.448;2023-04-03T08:14:13;256.70;2252.80
57030;DHT22;42920;45.306;20.448;2023-04-03T08:16:43;256.90;2252.80
57030;DHT22;42920;45.306;20.448;2023-04-03T08:19:08;256.90;2252.80
57030;DHT22;42920;45.306;20.448;2023-04-03T08:21:36;256.80;2252.80
57030;DHT22;42920;45.306;20.448;2023-04-03T08:24:02;256.70;2252.80
57030;DHT22;42920;45.306;20.448;2023-04-03T08:26:28;256.80;2252.80
57030;DHT22;42920;45.306;20.448;2023-04-03T08:28:54;256.80;2252.80
57030;DHT22;42920;45.306;20.448;2023-04-03T08:31:20;256.80;2252.80
57030;DHT22;42920;45.306;20.448;2023-04-03T08:33:47;256.80;2252.80
57030;DHT22;42920;45.306;20.448;2023-04-03T08:36:21;281.60;2278.40
57030;DHT22;42920;45.306;20.448;2023-04-03T08:38:48;281.70;2278.40
57030;DHT22;42920;45.306;20.448;2023-04-03T08:55:22;281.90;2278.40
57030;DHT22;42920;45.306;20.448;2023-04-03T08:57:49;282.00;2278.40
57030;DHT22;42920;45.306;20.448;2023-04-03T09:00:21;281.90;2278.40
57030;DHT22;42920;45.306;20.448;2023-04-03T09:02:50;282.00;2278.40
57030;DHT22;42920;45.306;20.448;2023-04-03T09:05:17;282.20;2278.40
57030;DHT22;42920;45.306;20.448;2023-04-03T09:07:47;282.10;2278.40
57030;DHT22;42920;45.306;20.448;2023-04-03T09:10:18;282.20;2278.40
57030;DHT22;42920;45.306;20.448;2023-04-03T09:12:53;282.20;2278.40
57030;DHT22;42920;45.306;20.448;2023-04-03T09:15:22;282.40;2278.40
57030;DHT22;42920;45.306;20.448;2023-04-03T09:25:58;307.30;2304.00
57030;DHT22;42920;45.306;20.448;2023-04-03T09:28:27;307.30;2304.00
57030;DHT22;42920;45.306;20.448;2023-04-03T09:30:53;307.30;2304.00
57030;DHT22;42920;45.306;20.448;2023-04-03T09:33:20;307.20;2304.00
57030;DHT22;42920;45.306;20.448;2023-04-03T09:35:47;307.20;2304.00
57030;DHT22;42920;45.306;20.448;2023-04-03T09:38:15;307.20;2304.00
57030;DHT22;42920;45.306;20.448;2023-04-03T09:40:47;307.20;2304.00
57030;DHT22;42920;45.306;20.448;2023-04-03T09:45:51;307.30;2304.00
57030;DHT22;42920;45.306;20.448;2023-04-03T09:48:22;307.30;2304.00
57030;DHT22;42920;45.306;20.448;2023-04-03T09:56:03;307.20;2304.00
57030;DHT22;42920;45.306;20.448;2023-04-03T09:58:31;307.30;2304.00
57030;DHT22;42920;45.306;20.448;2023-04-03T10:01:00;307.20;2304.00
57030;DHT22;42920;45.306;20.448;2023-04-03T10:03:32;307.30;2304.00
57030;DHT22;42920;45.306;20.448;2023-04-03T10:06:00;307.40;2304.00
57030;DHT22;42920;45.306;20.448;2023-04-03T10:08:28;307.50;2304.00
57030;DHT22;42920;45.306;20.448;2023-04-03T10:13:32;307.50;2304.00
57030;DHT22;42920;45.306;20.448;2023-04-03T10:16:11;307.50;2304.00
57030;DHT22;42920;45.306;20.448;2023-04-03T10:18:42;307.60;2304.00
57030;DHT22;42920;45.306;20.448;2023-04-03T10:24:13;307.70;2304.00
57030;DHT22;42920;45.306;20.448;2023-04-03T10:43:09;308.10;2304.00
57030;DHT22;42920;45.306;20.448;2023-04-03T10:45:52;308.10;2304.00
57030;DHT22;42920;45.306;20.448;2023-04-03T10:51:29;308.00;2304.00
57030;DHT22;42920;45.306;20.448;2023-04-03T10:56:52;332.80;2329.60
57030;DHT22;42920;45.306;20.448;2023-04-03T10:59:52;332.90;2329.60
57030;DHT22;42920;45.306;20.448;2023-04-03T11:02:25;333.00;2329.60
57030;DHT22;42920;45.306;20.448;2023-04-03T11:05:01;333.00;2329.60
57030;DHT22;42920;45.306;20.448;2023-04-03T11:07:32;333.20;2329.60
57030;DHT22;42920;45.306;20.448;2023-04-03T11:10:03;333.20;2329.60
57030;DHT22;42920;45.306;20.448;2023-04-03T11:13:10;333.30;2329.60
57030;DHT22;42920;45.306;20.448;2023-04-03T11:15:37;333.30;2329.60
57030;DHT22;42920;45.306;20.448;2023-04-03T11:18:38;333.20;2329.60
57030;DHT22;42920;45.306;20.448;2023-04-03T11:23:44;333.40;2329.60
57030;DHT22;42920;45.306;20.448;2023-04-03T11:28:41;333.60;2329.60
57030;DHT22;42920;45.306;20.448;2023-04-03T11:36:58;358.70;2278.40
57030;DHT22;42920;45.306;20.448;2023-04-03T11:42:17;359.20;2150.40
57030;DHT22;42920;45.306;20.448;2023-04-03T11:44:49;384.30;2073.60
57030;DHT22;42920;45.306;20.448;2023-04-03T11:47:48;384.20;2099.20
57030;DHT22;42920;45.306;20.448;2023-04-03T11:53:27;384.70;2099.20
57030;DHT22;42920;45.306;20.448;2023-04-03T11:55:54;384.90;1971.20
57030;DHT22;42920;45.306;20.448;2023-04-03T11:58:29;409.80;2048.00
57030;DHT22;42920;45.306;20.448;2023-04-03T12:01:07;409.90;1971.20
57030;DHT22;42920;45.306;20.448;2023-04-03T12:29:33;410.50;1740.80
57030;DHT22;42920;45.306;20.448;2023-04-03T12:38:11;409.70;1766.40
57030;DHT22;42920;45.306;20.448;2023-04-03T12:40:53;409.70;1817.60
57030;DHT22;42920;45.306;20.448;2023-04-03T12:46:17;409.60;1843.20
57030;DHT22;42920;45.306;20.448;2023-04-03T12:51:40;384.10;1945.60
57030;DHT22;42920;45.306;20.448;2023-04-03T12:56:49;359.30;1920.00
57030;DHT22;42920;45.306;20.448;2023-04-03T12:59:23;359.30;1971.20
57030;DHT22;42920;45.306;20.448;2023-04-03T13:02:00;359.20;2048.00
57030;DHT22;42920;45.306;20.448;2023-04-03T13:04:31;359.00;2022.40
57030;DHT22;42920;45.306;20.448;2023-04-03T13:06:57;359.30;1971.20
57030;DHT22;42920;45.306;20.448;2023-04-03T13:09:30;384.00;1996.80
57030;DHT22;42920;45.306;20.448;2023-04-03T13:12:13;359.20;1996.80
57030;DHT22;42920;45.306;20.448;2023-04-03T13:14:49;359.10;1996.80
57030;DHT22;42920;45.306;20.448;2023-04-03T13:17:16;359.10;2048.00
57030;DHT22;42920;45.306;20.448;2023-04-03T13:19:44;359.00;2048.00
57030;DHT22;42920;45.306;20.448;2023-04-03T13:24:54;358.80;2022.40
57030;DHT22;42920;45.306;20.448;2023-04-03T13:27:21;358.60;1996.80
57030;DHT22;42920;45.306;20.448;2023-04-03T13:29:51;358.60;2048.00
57030;DHT22;42920;45.306;20.448;2023-04-03T13:32:21;358.70;2073.60
57030;DHT22;42920;45.306;20.448;2023-04-03T13:34:49;358.70;2124.80
57030;DHT22;42920;45.306;20.448;2023-04-03T13:37:31;358.60;1996.80
57030;DHT22;42920;45.306;20.448;2023-04-03T13:40:17;358.50;2048.00
57030;DHT22;42920;45.306;20.448;2023-04-03T13:42:43;358.50;2099.20
57030;DHT22;42920;45.306;20.448;2023-04-03T13:45:26;358.40;2099.20
57030;DHT22;42920;45.306;20.448;2023-04-03T13:48:09;333.60;2022.40
57030;DHT22;42920;45.306;20.448;2023-04-03T13:53:21;333.50;2099.20
57030;DHT22;42920;45.306;20.448;2023-04-03T13:56:08;333.40;2073.60
57030;DHT22;42920;45.306;20.448;2023-04-03T13:58:36;333.40;2022.40
57030;DHT22;42920;45.306;20.448;2023-04-03T14:01:18;333.40;2048.00
57030;DHT22;42920;45.306;20.448;2023-04-03T14:06:15;333.40;2150.40
57030;DHT22;42920;45.306;20.448;2023-04-03T14:08:46;333.40;2176.00
57030;DHT22;42920;45.306;20.448;2023-04-03T14:11:27;333.40;2022.40
57030;DHT22;42920;45.306;20.448;2023-04-03T14:13:57;333.40;2022.40
57030;DHT22;42920;45.306;20.448;2023-04-03T14:16:27;333.40;2022.40
57030;DHT22;42920;45.306;20.448;2023-04-03T14:18:55;333.40;2099.20
57030;DHT22;42920;45.306;20.448;2023-04-03T14:21:21;333.40;2124.80
57030;DHT22;42920;45.306;20.448;2023-04-03T14:23:47;333.40;1996.80
57030;DHT22;42920;45.306;20.448;2023-04-03T14:26:16;333.40;2022.40
57030;DHT22;42920;45.306;20.448;2023-04-03T14:28:44;333.40;2022.40
57030;DHT22;42920;45.306;20.448;2023-04-03T14:31:13;333.40;2022.40
57030;DHT22;42920;45.306;20.448;2023-04-03T14:33:40;333.40;2048.00
57030;DHT22;42920;45.306;20.448;2023-04-03T14:38:37;333.40;2073.60
57030;DHT22;42920;45.306;20.448;2023-04-03T14:41:03;333.40;2048.00
57030;DHT22;42920;45.306;20.448;2023-04-03T14:43:28;333.40;1971.20
57030;DHT22;42920;45.306;20.448;2023-04-03T14:45:54;333.40;1996.80
57030;DHT22;42920;45.306;20.448;2023-04-03T14:48:25;333.30;1996.80
57030;DHT22;42920;45.306;20.448;2023-04-03T14:50:52;333.40;2022.40
57030;DHT22;42920;45.306;20.448;2023-04-03T14:53:19;333.20;1996.80
57030;DHT22;42920;45.306;20.448;2023-04-03T14:55:48;333.20;1996.80
57030;DHT22;42920;45.306;20.448;2023-04-03T14:58:17;333.20;1971.20
57030;DHT22;42920;45.306;20.448;2023-04-03T15:00:44;333.20;2048.00
57030;DHT22;42920;45.306;20.448;2023-04-03T15:03:14;333.20;1971.20
57030;DHT22;42920;45.306;20.448;2023-04-03T15:05:40;333.20;2022.40
57030;DHT22;42920;45.306;20.448;2023-04-03T15:08:23;333.20;1971.20
57030;DHT22;42920;45.306;20.448;2023-04-03T15:10:50;333.20;1996.80
57030;DHT22;42920;45.306;20.448;2023-04-03T15:13:19;333.20;1971.20
57030;DHT22;42920;45.306;20.448;2023-04-03T15:15:46;333.20;1945.60
57030;DHT22;42920;45.306;20.448;2023-04-03T15:18:16;333.10;1920.00
57030;DHT22;42920;45.306;20.448;2023-04-03T15:20:43;333.00;1971.20
57030;DHT22;42920;45.306;20.448;2023-04-03T15:23:11;333.00;1996.80
57030;DHT22;42920;45.306;20.448;2023-04-03T15:25:37;333.00;1971.20
57030;DHT22;42920;45.306;20.448;2023-04-03T15:28:03;332.90;1920.00
57030;DHT22;42920;45.306;20.448;2023-04-03T15:30:29;332.90;1920.00
57030;DHT22;42920;45.306;20.448;2023-04-03T15:32:55;332.90;1996.80
57030;DHT22;42920;45.306;20.448;2023-04-03T15:35:21;308.10;1971.20
57030;DHT22;42920;45.306;20.448;2023-04-03T15:37:47;332.80;2048.00
57030;DHT22;42920;45.306;20.448;2023-04-03T15:40:14;332.80;1996.80
57030;DHT22;42920;45.306;20.448;2023-04-03T15:42:39;308.10;1945.60
57030;DHT22;42920;45.306;20.448;2023-04-03T15:45:06;308.10;2022.40
57030;DHT22;42920;45.306;20.448;2023-04-03T15:47:32;308.10;2022.40
57030;DHT22;42920;45.306;20.448;2023-04-03T15:49:58;308.00;1996.80
57030;DHT22;42920;45.306;20.448;2023-04-03T15:52:24;307.90;2022.40
57030;DHT22;42920;45.306;20.448;2023-04-03T15:54:49;307.90;2022.40
57030;DHT22;42920;45.306;20.448;2023-04-03T15:57:15;307.80;1971.20
57030;DHT22;42920;45.306;20.448;2023-04-03T15:59:41;307.80;1996.80
57030;DHT22;42920;45.306;20.448;2023-04-03T16:02:08;307.70;2022.40
57030;DHT22;42920;45.306;20.448;2023-04-03T16:04:37;307.70;1971.20
57030;DHT22;42920;45.306;20.448;2023-04-03T16:07:03;307.60;2022.40
57030;DHT22;42920;45.306;20.448;2023-04-03T16:09:30;307.60;2048.00
57030;DHT22;42920;45.306;20.448;2023-04-03T16:11:56;307.50;1996.80
57030;DHT22;42920;45.306;20.448;2023-04-03T16:14:22;307.60;2022.40
57030;DHT22;42920;45.306;20.448;2023-04-03T16:16:48;307.50;2048.00
57030;DHT22;42920;45.306;20.448;2023-04-03T16:19:14;307.40;1996.80
57030;DHT22;42920;45.306;20.448;2023-04-03T16:21:40;307.40;2022.40
57030;DHT22;42920;45.306;20.448;2023-04-03T16:24:06;307.40;1996.80
57030;DHT22;42920;45.306;20.448;2023-04-03T16:26:32;307.40;1996.80
57030;DHT22;42920;45.306;20.448;2023-04-03T16:28:57;307.40;2022.40
57030;DHT22;42920;45.306;20.448;2023-04-03T16:31:25;307.30;2048.00
57030;DHT22;42920;45.306;20.448;2023-04-03T16:33:51;307.30;2073.60
57030;DHT22;42920;45.306;20.448;2023-04-03T16:36:17;307.20;2073.60
57030;DHT22;42920;45.306;20.448;2023-04-03T16:38:42;307.20;2022.40
57030;DHT22;42920;45.306;20.448;2023-04-03T16:41:08;282.50;1971.20
57030;DHT22;42920;45.306;20.448;2023-04-03T16:43:34;282.50;1971.20
57030;DHT22;42920;45.306;20.448;2023-04-03T16:46:01;282.50;1971.20
57030;DHT22;42920;45.306;20.448;2023-04-03T16:48:28;282.40;1971.20